Time;durP1;ratioP1;P1;durP2;ratioP2;P2;SDS_P1;SDS_P2;PMS_P1;PMS_P2;Temp;Humidity;BMP_temperature;BMP_pressure;BME280_temperature;BME280_humidity;BME280_pressure;Samples;Min_cycle;Max_cycle;Signal;HPM_P1;HPM_P2
2022/05/16 00:00:22;;;;;;;7.93;4.65;;;;;;;;;;6316526;28;20059;-79
2022/05/16 00:03:24;;;;;;;6.20;4.60;;;;;;;;;;6310664;28;20051;-79
2022/05/16 00:06:25;;;;;;;9.73;4.82;;;;;;;;;;6310786;28;20111;-78
2022/05/16 00:09:27;;;;;;;5.07;4.15;;;;;;;;;;6310479;28;20109;-77
2022/05/16 00:12:29;;;;;;;5.90;4.63;;;;;;;;;;6306862;28;20039;-79
2022/05/16 00:15:31;;;;;;;6.75;4.65;;;;;;;;;;6312962;28;20132;-77
2022/05/16 00:18:32;;;;;;;6.68;4.20;;;;;;;;;;6325914;28;20085;-79
2022/05/16 00:21:34;;;;;;;7.43;4.88;;;;;;;;;;6337801;28;20047;-79
2022/05/16 00:24:43;;;;;;;7.40;4.60;;;;;;;;;;6339856;28;20054;-79
2022/05/16 00:27:45;;;;;;;5.30;3.90;;;;;;;;;;6328594;28;20046;-77
2022/05/16 00:30:48;;;;;;;9.18;4.60;;;;;;;;;;6312809;28;20183;-78
2022/05/16 00:33:49;;;;;;;7.43;4.63;;;;;;;;;;6314845;28;20130;-80
2022/05/16 00:36:52;;;;;;;9.50;4.88;;;;;;;;;;6315782;28;20517;-78
2022/05/16 00:39:53;;;;;;;8.68;4.80;;;;;;;;;;6315326;28;20550;-82
2022/05/16 00:43:07;;;;;;;4.97;4.47;;;;;;;;;;6330054;28;20184;-79
2022/05/16 00:46:09;;;;;;;7.93;5.07;;;;;;;;;;6335065;28;20117;-79
2022/05/16 00:49:16;;;;;;;7.72;5.03;;;;;;;;;;6330867;28;20485;-79
2022/05/16 00:52:27;;;;;;;9.48;5.05;;;;;;;;;;6336984;28;20538;-80
2022/05/16 00:55:32;;;;;;;7.57;5.13;;;;;;;;;;6312917;28;20115;-77
2022/05/16 00:58:37;;;;;;;6.82;5.18;;;;;;;;;;6315867;28;20063;-78
2022/05/16 01:05:02;;;;;;;8.87;5.20;;;;;;;;;;6312864;28;20048;-78
2022/05/16 01:08:07;;;;;;;8.48;5.03;;;;;;;;;;6296558;28;20047;-77
2022/05/16 01:11:12;;;;;;;7.30;5.22;;;;;;;;;;6317210;28;20111;-78
2022/05/16 01:14:39;;;;;;;5.78;5.03;;;;;;;;;;6340202;28;20063;-79
2022/05/16 01:17:41;;;;;;;8.18;5.78;;;;;;;;;;6338258;28;20151;-78
2022/05/16 01:21:14;;;;;;;7.88;5.15;;;;;;;;;;6317830;28;20051;-79
2022/05/16 01:24:18;;;;;;;9.30;5.70;;;;;;;;;;6321789;28;20117;-78
2022/05/16 01:27:20;;;;;;;7.13;5.05;;;;;;;;;;6334245;28;20466;-80
2022/05/16 01:30:34;;;;;;;8.57;5.60;;;;;;;;;;6302119;28;20505;-80
2022/05/16 01:33:36;;;;;;;8.25;5.60;;;;;;;;;;6331779;28;20069;-79
2022/05/16 01:36:38;;;;;;;7.78;5.35;;;;;;;;;;6340759;28;20067;-80
2022/05/16 01:39:40;;;;;;;8.40;5.30;;;;;;;;;;6306582;28;20159;-79
2022/05/16 01:42:42;;;;;;;9.02;5.93;;;;;;;;;;6290863;28;20064;-78
2022/05/16 01:45:44;;;;;;;7.78;5.22;;;;;;;;;;6295235;28;20128;-79
2022/05/16 01:48:46;;;;;;;8.35;5.07;;;;;;;;;;6321913;28;20048;-78
2022/05/16 01:51:48;;;;;;;7.03;4.45;;;;;;;;;;6326170;28;20051;-78
2022/05/16 01:54:50;;;;;;;7.63;5.00;;;;;;;;;;6340754;28;20116;-77
2022/05/16 01:57:52;;;;;;;7.28;4.90;;;;;;;;;;6296851;28;20108;-79
2022/05/16 02:00:54;;;;;;;8.00;5.07;;;;;;;;;;6310092;28;20056;-79
2022/05/16 02:03:56;;;;;;;6.75;4.70;;;;;;;;;;6301015;28;20036;-79
2022/05/16 02:06:58;;;;;;;7.95;5.38;;;;;;;;;;6319220;28;20047;-79
2022/05/16 02:10:00;;;;;;;6.78;4.80;;;;;;;;;;6320508;28;20505;-79
2022/05/16 02:13:03;;;;;;;7.10;5.53;;;;;;;;;;6303368;28;20082;-78
2022/05/16 02:16:05;;;;;;;7.18;4.88;;;;;;;;;;6295791;28;20040;-78
2022/05/16 02:19:07;;;;;;;10.55;5.43;;;;;;;;;;6310583;28;20090;-78
2022/05/16 02:25:33;;;;;;;10.60;5.65;;;;;;;;;;6319447;28;20044;-79
2022/05/16 02:28:34;;;;;;;7.10;5.03;;;;;;;;;;6294956;28;20044;-78
2022/05/16 02:31:36;;;;;;;8.50;5.07;;;;;;;;;;6293207;28;20170;-80
2022/05/16 02:34:38;;;;;;;11.45;5.47;;;;;;;;;;6294031;28;20151;-80
2022/05/16 02:37:40;;;;;;;9.07;5.40;;;;;;;;;;6295408;28;20037;-79
2022/05/16 02:40:42;;;;;;;9.07;6.07;;;;;;;;;;6293343;28;20182;-79
2022/05/16 02:43:43;;;;;;;9.95;6.38;;;;;;;;;;6293139;28;20108;-79
2022/05/16 02:46:45;;;;;;;7.50;5.88;;;;;;;;;;6297958;28;20399;-79
2022/05/16 02:49:53;;;;;;;9.40;5.60;;;;;;;;;;6313945;28;20044;-78
2022/05/16 02:52:55;;;;;;;8.50;5.95;;;;;;;;;;6343167;28;20243;-77
2022/05/16 02:55:57;;;;;;;7.45;5.40;;;;;;;;;;6344676;28;20050;-79
2022/05/16 02:58:58;;;;;;;7.82;5.55;;;;;;;;;;6296902;28;20109;-78
2022/05/16 03:02:01;;;;;;;8.38;5.18;;;;;;;;;;6290705;28;20139;-77
2022/05/16 03:05:04;;;;;;;7.35;5.40;;;;;;;;;;6327919;28;20040;-77
2022/05/16 03:08:06;;;;;;;8.32;6.18;;;;;;;;;;6317911;28;20608;-79
2022/05/16 03:11:08;;;;;;;10.35;5.90;;;;;;;;;;6297804;28;20127;-79
2022/05/16 03:14:09;;;;;;;8.55;5.60;;;;;;;;;;6294029;28;20055;-79
2022/05/16 03:17:12;;;;;;;7.20;5.40;;;;;;;;;;6293180;28;20086;-77
2022/05/16 03:20:15;;;;;;;6.87;5.13;;;;;;;;;;6274664;28;20044;-79
2022/05/16 03:23:19;;;;;;;9.35;5.38;;;;;;;;;;6284186;28;20048;-78
2022/05/16 03:26:20;;;;;;;8.15;5.30;;;;;;;;;;6290298;28;20083;-78
2022/05/16 03:29:22;;;;;;;9.02;5.18;;;;;;;;;;6280162;28;20056;-77
2022/05/16 03:32:24;;;;;;;10.52;5.75;;;;;;;;;;6266861;28;20098;-80
2022/05/16 03:35:26;;;;;;;10.00;5.68;;;;;;;;;;6302816;28;20113;-79
2022/05/16 03:41:49;;;;;;;8.32;5.70;;;;;;;;;;6288766;28;20166;-77
2022/05/16 03:44:50;;;;;;;9.82;5.85;;;;;;;;;;6289531;28;20104;-76
2022/05/16 03:47:52;;;;;;;8.07;5.57;;;;;;;;;;6294111;28;20454;-76
2022/05/16 03:50:54;;;;;;;7.10;5.68;;;;;;;;;;6297403;28;20086;-79
2022/05/16 03:53:55;;;;;;;8.95;5.72;;;;;;;;;;6298770;28;20060;-77
2022/05/16 03:56:57;;;;;;;7.05;5.95;;;;;;;;;;6296660;28;20090;-79
2022/05/16 03:59:59;;;;;;;9.75;6.07;;;;;;;;;;6296162;28;20041;-77
2022/05/16 04:03:00;;;;;;;10.20;5.82;;;;;;;;;;6294970;28;20832;-79
2022/05/16 04:06:03;;;;;;;10.60;6.15;;;;;;;;;;6312847;28;20451;-77
2022/05/16 04:09:05;;;;;;;7.88;5.95;;;;;;;;;;6295679;28;20068;-78
2022/05/16 04:12:07;;;;;;;11.05;7.13;;;;;;;;;;6316281;28;20056;-76
2022/05/16 04:15:11;;;;;;;9.07;5.57;;;;;;;;;;6324874;28;20040;-76
2022/05/16 04:18:13;;;;;;;7.38;5.40;;;;;;;;;;6319308;28;20511;-77
2022/05/16 04:21:15;;;;;;;7.13;5.68;;;;;;;;;;6318290;28;20110;-78
2022/05/16 04:24:17;;;;;;;8.32;5.78;;;;;;;;;;6318692;28;20103;-76
2022/05/16 04:27:19;;;;;;;7.25;5.78;;;;;;;;;;6311524;28;20040;-76
2022/05/16 04:30:21;;;;;;;9.57;6.05;;;;;;;;;;6292243;28;20094;-78
2022/05/16 04:33:23;;;;;;;10.45;5.95;;;;;;;;;;6291688;28;20036;-78
2022/05/16 04:36:25;;;;;;;9.80;5.75;;;;;;;;;;6294107;28;20490;-77
2022/05/16 04:39:26;;;;;;;8.52;5.70;;;;;;;;;;6292131;28;20123;-78
2022/05/16 04:42:40;;;;;;;9.55;6.15;;;;;;;;;;6292742;28;20097;-77
2022/05/16 04:45:42;;;;;;;11.20;5.93;;;;;;;;;;6298272;28;20066;-78
2022/05/16 04:48:44;;;;;;;8.40;6.18;;;;;;;;;;6310410;28;20036;-78
2022/05/16 04:51:46;;;;;;;9.25;6.13;;;;;;;;;;6323476;28;20059;-79
2022/05/16 04:54:48;;;;;;;11.52;6.63;;;;;;;;;;6321987;28;20093;-79
2022/05/16 04:57:50;;;;;;;9.30;6.70;;;;;;;;;;6299268;28;20406;-77
2022/05/16 05:00:52;;;;;;;12.03;6.30;;;;;;;;;;6295012;28;20370;-76
2022/05/16 05:03:54;;;;;;;9.55;6.10;;;;;;;;;;6309409;28;20044;-77
2022/05/16 05:06:57;;;;;;;9.93;6.18;;;;;;;;;;6321584;28;20064;-78
2022/05/16 05:16:39;;;;;;;11.93;7.07;;;;;;;;;;6294880;28;20044;-78
2022/05/16 05:19:41;;;;;;;10.57;6.65;;;;;;;;;;6290139;28;20060;-77
2022/05/16 05:22:47;;;;;;;8.35;5.97;;;;;;;;;;6292189;28;20116;-78
2022/05/16 05:25:48;;;;;;;8.00;5.90;;;;;;;;;;6295087;28;20129;-78
2022/05/16 05:28:50;;;;;;;8.48;5.68;;;;;;;;;;6296995;28;20044;-77
2022/05/16 05:31:51;;;;;;;12.18;6.50;;;;;;;;;;6296277;28;20123;-78
2022/05/16 05:34:53;;;;;;;10.95;6.32;;;;;;;;;;6296501;28;20100;-76
2022/05/16 05:37:55;;;;;;;10.52;6.63;;;;;;;;;;6294346;28;20237;-79
2022/05/16 05:40:57;;;;;;;9.70;6.23;;;;;;;;;;6298173;28;20043;-78
2022/05/16 05:43:59;;;;;;;13.27;6.55;;;;;;;;;;6322517;28;20578;-78
2022/05/16 05:47:01;;;;;;;8.82;6.18;;;;;;;;;;6309884;28;20504;-78
2022/05/16 05:50:04;;;;;;;9.48;5.80;;;;;;;;;;6318729;28;20044;-78
2022/05/16 05:53:06;;;;;;;12.07;5.65;;;;;;;;;;6323434;28;20068;-77
2022/05/16 05:56:11;;;;;;;7.97;5.90;;;;;;;;;;6322072;28;20044;-77
2022/05/16 05:59:13;;;;;;;9.70;6.35;;;;;;;;;;6303273;28;20084;-78
2022/05/16 06:02:17;;;;;;;12.07;6.25;;;;;;;;;;6294003;28;20090;-77
2022/05/16 06:05:21;;;;;;;10.27;5.57;;;;;;;;;;6320060;28;20451;-78
2022/05/16 06:08:23;;;;;;;10.80;5.45;;;;;;;;;;6304973;28;20055;-79
2022/05/16 06:11:28;;;;;;;8.60;5.35;;;;;;;;;;6293168;28;20464;-76
2022/05/16 06:14:30;;;;;;;10.13;5.20;;;;;;;;;;6293452;28;20140;-78
2022/05/16 06:17:32;;;;;;;6.95;5.30;;;;;;;;;;6292148;28;20485;-79
2022/05/16 06:20:34;;;;;;;10.88;5.57;;;;;;;;;;6317873;28;20124;-80
2022/05/16 06:23:35;;;;;;;9.05;5.28;;;;;;;;;;6318323;28;20043;-79
2022/05/16 06:26:37;;;;;;;8.48;5.30;;;;;;;;;;6309968;28;20104;-80
2022/05/16 06:29:39;;;;;;;9.52;5.93;;;;;;;;;;6291906;28;20529;-77
2022/05/16 06:32:40;;;;;;;7.60;5.47;;;;;;;;;;6295940;28;20072;-78
2022/05/16 06:35:43;;;;;;;8.52;5.65;;;;;;;;;;6317621;28;20044;-80
2022/05/16 06:38:51;;;;;;;9.68;5.57;;;;;;;;;;6316916;28;20100;-77
2022/05/16 06:41:53;;;;;;;11.60;6.20;;;;;;;;;;6301737;28;20179;-78
2022/05/16 06:44:55;;;;;;;14.95;7.15;;;;;;;;;;6292392;28;20132;-78
2022/05/16 06:47:57;;;;;;;14.05;7.05;;;;;;;;;;6298285;28;20071;-79
2022/05/16 06:50:59;;;;;;;18.95;6.40;;;;;;;;;;6314204;28;20724;-78
2022/05/16 06:54:01;;;;;;;17.13;6.20;;;;;;;;;;6313632;28;20096;-79
2022/05/16 06:57:03;;;;;;;14.55;6.22;;;;;;;;;;6311632;28;20109;-79
2022/05/16 07:00:06;;;;;;;12.93;6.20;;;;;;;;;;6312661;28;20136;-78
2022/05/16 07:03:09;;;;;;;;;;;;;;;;;;6300280;28;20095;-80
2022/05/16 07:06:18;;;;;;;13.57;6.85;;;;;;;;;;6314066;28;19935;-79
2022/05/16 07:09:20;;;;;;;15.15;6.28;;;;;;;;;;6316588;28;20316;-80
2022/05/16 07:12:22;;;;;;;17.58;7.13;;;;;;;;;;6326249;28;20043;-80
2022/05/16 07:15:24;;;;;;;17.98;6.80;;;;;;;;;;6340244;28;20048;-79
2022/05/16 07:18:25;;;;;;;14.50;6.93;;;;;;;;;;6329647;28;20528;-81
2022/05/16 07:21:27;;;;;;;15.57;7.32;;;;;;;;;;6314430;28;20064;-80
2022/05/16 07:24:29;;;;;;;10.60;6.93;;;;;;;;;;6314461;28;20048;-81
2022/05/16 07:30:51;;;;;;;11.10;6.50;;;;;;;;;;6289985;28;20048;-81
2022/05/16 07:33:53;;;;;;;10.75;7.20;;;;;;;;;;6302731;28;20062;-80
2022/05/16 07:36:54;;;;;;;9.93;6.57;;;;;;;;;;6302832;28;20060;-81
2022/05/16 07:39:59;;;;;;;11.05;5.72;;;;;;;;;;6287941;28;20048;-81
2022/05/16 07:43:03;;;;;;;12.52;6.72;;;;;;;;;;6289277;28;20538;-80
2022/05/16 07:46:05;;;;;;;15.13;7.65;;;;;;;;;;6289119;28;20394;-81
2022/05/16 07:49:07;;;;;;;13.60;7.77;;;;;;;;;;6283474;28;20048;-80
2022/05/16 07:52:09;;;;;;;12.43;7.07;;;;;;;;;;6289134;28;20176;-79
2022/05/16 07:55:12;;;;;;;14.38;7.63;;;;;;;;;;6287970;28;20068;-81
2022/05/16 07:58:14;;;;;;;14.95;7.13;;;;;;;;;;6296774;28;20052;-80
2022/05/16 08:01:16;;;;;;;13.55;6.63;;;;;;;;;;6307086;28;20050;-81
2022/05/16 08:04:18;;;;;;;15.27;7.35;;;;;;;;;;6287371;28;20413;-82
2022/05/16 08:07:19;;;;;;;13.52;7.65;;;;;;;;;;6289725;28;20127;-81
2022/05/16 08:10:31;;;;;;;11.63;5.78;;;;;;;;;;6285364;28;20174;-79
2022/05/16 08:13:32;;;;;;;13.05;5.68;;;;;;;;;;6287854;28;20488;-80
2022/05/16 08:16:34;;;;;;;13.27;6.85;;;;;;;;;;6295824;28;20100;-81
2022/05/16 08:19:36;;;;;;;14.13;5.33;;;;;;;;;;6311313;28;20051;-81
2022/05/16 08:22:38;;;;;;;14.63;6.07;;;;;;;;;;6295560;28;20055;-81
2022/05/16 08:25:40;;;;;;;11.05;6.00;;;;;;;;;;6313947;28;20104;-80
2022/05/16 08:28:42;;;;;;;17.20;6.83;;;;;;;;;;6322129;28;20075;-80
2022/05/16 08:31:44;;;;;;;11.73;6.38;;;;;;;;;;6313608;28;20446;-80
2022/05/16 08:34:47;;;;;;;13.45;6.45;;;;;;;;;;6313255;28;20547;-81
2022/05/16 08:41:11;;;;;;;6.05;5.00;;;;;;;;;;6314098;28;19968;-80
2022/05/16 08:44:22;;;;;;;7.93;5.25;;;;;;;;;;6320534;28;20047;-81
2022/05/16 08:48:08;;;;;;;12.13;5.75;;;;;;;;;;6320688;28;20528;-79
2022/05/16 08:51:21;;;;;;;10.75;5.28;;;;;;;;;;6281280;28;20072;-80
2022/05/16 08:54:42;;;;;;;7.68;5.15;;;;;;;;;;6311816;28;20111;-80
2022/05/16 08:57:53;;;;;;;9.13;5.05;;;;;;;;;;6332387;28;20120;-79
2022/05/16 09:01:06;;;;;;;11.73;5.45;;;;;;;;;;6317853;28;20055;-79
2022/05/16 09:04:16;;;;;;;7.20;5.03;;;;;;;;;;6308873;28;20040;-81
2022/05/16 09:07:28;;;;;;;9.05;5.20;;;;;;;;;;6310631;28;20078;-80
2022/05/16 09:10:38;;;;;;;10.63;5.25;;;;;;;;;;6311832;28;20059;-80
2022/05/16 09:13:51;;;;;;;9.60;5.03;;;;;;;;;;6308879;28;20050;-80
2022/05/16 09:17:01;;;;;;;11.20;4.80;;;;;;;;;;6312609;28;20101;-81
2022/05/16 09:20:25;;;;;;;6.32;4.50;;;;;;;;;;6289665;28;20036;-80
2022/05/16 09:23:37;;;;;;;7.70;4.40;;;;;;;;;;6309915;28;20409;-80
2022/05/16 09:26:54;;;;;;;11.35;4.35;;;;;;;;;;6312345;28;20576;-80
2022/05/16 09:29:55;;;;;;;7.80;4.15;;;;;;;;;;6294544;28;20146;-80
2022/05/16 09:33:09;;;;;;;7.03;4.15;;;;;;;;;;6284200;28;20074;-80
2022/05/16 09:36:13;;;;;;;7.07;4.13;;;;;;;;;;6292831;28;20503;-81
2022/05/16 09:39:20;;;;;;;7.57;4.00;;;;;;;;;;6293738;28;20096;-79
2022/05/16 09:42:25;;;;;;;9.20;4.88;;;;;;;;;;6291163;28;20040;-80
2022/05/16 09:45:29;;;;;;;7.35;3.70;;;;;;;;;;6292096;28;20178;-79
2022/05/16 09:48:30;;;;;;;9.68;4.38;;;;;;;;;;6291376;28;20557;-79
2022/05/16 09:51:44;;;;;;;6.22;4.50;;;;;;;;;;6290845;28;20037;-79
2022/05/16 09:55:04;;;;;;;8.52;4.55;;;;;;;;;;6291626;28;20171;-79
2022/05/16 09:58:22;;;;;;;4.22;3.53;;;;;;;;;;6291639;28;20099;-79
2022/05/16 10:01:40;;;;;;;7.10;4.35;;;;;;;;;;6287611;28;20053;-80
2022/05/16 10:04:45;;;;;;;8.32;4.22;;;;;;;;;;6290962;28;20040;-80
2022/05/16 10:08:10;;;;;;;9.52;4.57;;;;;;;;;;6292276;28;20086;-80
2022/05/16 10:11:19;;;;;;;7.75;4.20;;;;;;;;;;6290352;28;20091;-79
2022/05/16 10:14:21;;;;;;;10.48;4.10;;;;;;;;;;6310788;28;20059;-80
2022/05/16 10:17:37;;;;;;;7.73;3.80;;;;;;;;;;6314407;28;20130;-79
2022/05/16 10:20:48;;;;;;;9.43;4.10;;;;;;;;;;6291670;28;20037;-79
2022/05/16 10:23:50;;;;;;;8.60;4.35;;;;;;;;;;6295914;28;20142;-78
2022/05/16 10:26:56;;;;;;;7.27;3.90;;;;;;;;;;6316431;28;20105;-79
2022/05/16 10:30:03;;;;;;;7.60;3.90;;;;;;;;;;6297356;28;20810;-79
2022/05/16 10:36:28;;;;;;;6.38;4.38;;;;;;;;;;6342302;28;20071;-82
2022/05/16 10:39:31;;;;;;;6.78;3.80;;;;;;;;;;6342376;28;20048;-79
2022/05/16 10:42:50;;;;;;;6.22;3.88;;;;;;;;;;6334835;28;20398;-80
2022/05/16 10:46:03;;;;;;;9.27;3.90;;;;;;;;;;6312310;28;20122;-79
2022/05/16 10:49:11;;;;;;;6.40;3.88;;;;;;;;;;6300616;28;20041;-79
2022/05/16 10:52:36;;;;;;;6.15;3.85;;;;;;;;;;6288372;28;20045;-78
2022/05/16 10:55:56;;;;;;;4.05;3.53;;;;;;;;;;6287630;28;20044;-81
2022/05/16 10:59:19;;;;;;;7.32;3.78;;;;;;;;;;6298035;28;20518;-79
2022/05/16 11:02:36;;;;;;;5.78;3.80;;;;;;;;;;6311920;28;20044;-79
2022/05/16 11:05:57;;;;;;;4.53;3.65;;;;;;;;;;6312211;28;20040;-79
2022/05/16 11:09:12;;;;;;;8.98;3.78;;;;;;;;;;6314867;28;20098;-78
2022/05/16 11:12:25;;;;;;;7.13;3.78;;;;;;;;;;6316233;28;20051;-80
2022/05/16 11:15:29;;;;;;;6.43;3.47;;;;;;;;;;6313490;28;20119;-80
2022/05/16 11:18:56;;;;;;;7.30;3.40;;;;;;;;;;6313658;28;20036;-79
2022/05/16 11:22:05;;;;;;;14.77;10.00;;;;;;;;;;6304959;28;20048;-78
2022/05/16 11:25:12;;;;;;;4.57;3.58;;;;;;;;;;6315592;28;20047;-79
2022/05/16 11:28:21;;;;;;;6.95;3.85;;;;;;;;;;6316565;28;20101;-80
2022/05/16 11:31:24;;;;;;;5.57;3.65;;;;;;;;;;6314296;28;20066;-81
2022/05/16 11:34:40;;;;;;;6.35;3.75;;;;;;;;;;6315046;28;20052;-80
2022/05/16 11:38:19;;;;;;;5.80;3.67;;;;;;;;;;6314654;28;20073;-79
2022/05/16 11:41:24;;;;;;;6.05;3.60;;;;;;;;;;6314243;28;20086;-80
2022/05/16 11:44:30;;;;;;;5.20;3.22;;;;;;;;;;6335251;28;20519;-80
2022/05/16 11:47:48;;;;;;;5.07;3.42;;;;;;;;;;6323087;28;20097;-82
2022/05/16 11:51:38;;;;;;;8.32;3.65;;;;;;;;;;6296177;28;20481;-79
2022/05/16 11:54:52;;;;;;;5.32;3.65;;;;;;;;;;6315336;28;20125;-82
2022/05/16 12:01:36;;;;;;;6.17;3.50;;;;;;;;;;6316450;28;20055;-81
2022/05/16 12:04:40;;;;;;;;;;;;;;;;;;6340141;28;20453;-81
2022/05/16 12:07:49;;;;;;;4.95;3.30;;;;;;;;;;6342346;28;19924;-81
2022/05/16 12:10:57;;;;;;;6.47;3.80;;;;;;;;;;6342021;28;20069;-82
2022/05/16 12:14:10;;;;;;;6.18;3.63;;;;;;;;;;6341264;28;20051;-80
2022/05/16 12:17:14;;;;;;;5.13;3.42;;;;;;;;;;6342006;28;20119;-79
2022/05/16 12:20:31;;;;;;;4.85;3.25;;;;;;;;;;6296480;28;20068;-79
2022/05/16 12:23:48;;;;;;;6.88;3.60;;;;;;;;;;6319704;28;20070;-79
2022/05/16 12:27:02;;;;;;;9.63;3.63;;;;;;;;;;6317004;28;20073;-79
2022/05/16 12:30:12;;;;;;;3.92;3.25;;;;;;;;;;6315904;28;20068;-78
2022/05/16 12:33:26;;;;;;;5.40;3.47;;;;;;;;;;6319587;28;20048;-79
2022/05/16 12:36:27;;;;;;;8.98;3.20;;;;;;;;;;6318414;28;20044;-79
2022/05/16 12:39:50;;;;;;;4.90;3.20;;;;;;;;;;6299988;28;20188;-79
2022/05/16 12:43:08;;;;;;;5.15;3.30;;;;;;;;;;6305518;28;20147;-79
2022/05/16 12:46:15;;;;;;;5.22;3.08;;;;;;;;;;6294779;28;20554;-78
2022/05/16 12:49:33;;;;;;;4.03;3.33;;;;;;;;;;6294754;28;20045;-78
2022/05/16 12:53:32;;;;;;;6.15;3.55;;;;;;;;;;6288208;28;20044;-79
2022/05/16 12:56:55;;;;;;;6.25;3.33;;;;;;;;;;6188427;28;20730;-79
2022/05/16 13:00:01;;;;;;;;;;;;;;;;;;6206659;28;20086;-79
2022/05/16 13:03:38;;;;;;;8.95;3.20;;;;;;;;;;6287043;28;19931;-79
2022/05/16 13:07:08;;;;;;;5.75;3.15;;;;;;;;;;6271642;28;20628;-78
2022/05/16 13:10:29;;;;;;;7.45;3.95;;;;;;;;;;6293248;28;20048;-84
2022/05/16 13:13:56;;;;;;;5.97;3.58;;;;;;;;;;6294065;28;20040;-83
2022/05/16 13:17:04;;;;;;;8.40;4.25;;;;;;;;;;6295727;28;20044;-83
2022/05/16 13:20:16;;;;;;;5.47;3.60;;;;;;;;;;6293541;28;20506;-82
2022/05/16 13:23:19;;;;;;;6.00;4.20;;;;;;;;;;6296633;28;20459;-82
2022/05/16 13:29:41;;;;;;;5.07;4.43;;;;;;;;;;6313100;28;20468;-81
2022/05/16 13:32:43;;;;;;;4.13;3.73;;;;;;;;;;6297641;28;20086;-81
2022/05/16 13:35:45;;;;;;;6.80;4.72;;;;;;;;;;6297359;28;20472;-82
2022/05/16 13:38:54;;;;;;;7.13;4.53;;;;;;;;;;6295844;28;20126;-81
2022/05/16 13:42:00;;;;;;;9.10;5.05;;;;;;;;;;6286669;28;20108;-79
2022/05/16 13:45:04;;;;;;;7.03;4.72;;;;;;;;;;6295792;28;20055;-82
2022/05/16 13:48:12;;;;;;;6.03;4.35;;;;;;;;;;6298011;28;20514;-81
2022/05/16 13:51:14;;;;;;;7.72;4.63;;;;;;;;;;6290918;28;20519;-81
2022/05/16 13:54:20;;;;;;;6.53;4.10;;;;;;;;;;6293493;28;20052;-81
2022/05/16 13:57:39;;;;;;;7.45;4.55;;;;;;;;;;6285307;28;20045;-82
2022/05/16 14:00:45;;;;;;;9.35;5.13;;;;;;;;;;6293423;28;20102;-80
2022/05/16 14:04:12;;;;;;;7.00;5.00;;;;;;;;;;6295159;28;20072;-81
2022/05/16 14:07:25;;;;;;;7.97;5.00;;;;;;;;;;6293937;28;20052;-81
2022/05/16 14:10:30;;;;;;;6.40;5.57;;;;;;;;;;6292317;28;20049;-82
2022/05/16 14:13:33;;;;;;;7.50;4.80;;;;;;;;;;6291861;28;20068;-81
2022/05/16 14:16:41;;;;;;;7.82;4.72;;;;;;;;;;6288449;28;20126;-80
2022/05/16 14:19:45;;;;;;;7.05;4.32;;;;;;;;;;6294786;28;20178;-81
2022/05/16 14:22:51;;;;;;;6.93;4.15;;;;;;;;;;6291755;28;20049;-80
2022/05/16 14:25:54;;;;;;;6.57;4.28;;;;;;;;;;6291892;28;20214;-81
2022/05/16 14:29:26;;;;;;;6.05;4.35;;;;;;;;;;6293416;28;20044;-82
2022/05/16 14:32:31;;;;;;;7.03;3.88;;;;;;;;;;6291411;28;20129;-82
2022/05/16 14:35:34;;;;;;;6.93;3.90;;;;;;;;;;6290156;28;20045;-82
2022/05/16 14:38:45;;;;;;;7.05;4.28;;;;;;;;;;6290645;28;20113;-82
2022/05/16 14:42:02;;;;;;;7.35;4.10;;;;;;;;;;6288836;28;20068;-82
2022/05/16 14:45:16;;;;;;;4.93;4.05;;;;;;;;;;6293404;28;20129;-82
2022/05/16 14:48:17;;;;;;;8.50;4.78;;;;;;;;;;6286769;28;20162;-82
2022/05/16 14:51:24;;;;;;;7.28;4.90;;;;;;;;;;6290016;28;20052;-82
2022/05/16 14:54:37;;;;;;;8.60;5.13;;;;;;;;;;6290477;28;20561;-83
2022/05/16 14:57:41;;;;;;;7.57;4.78;;;;;;;;;;6292684;28;20102;-80
2022/05/16 15:04:05;;;;;;;7.15;4.40;;;;;;;;;;6290306;28;20210;-81
2022/05/16 15:07:09;;;;;;;6.60;4.90;;;;;;;;;;6280539;28;20074;-82
2022/05/16 15:10:13;;;;;;;7.70;4.78;;;;;;;;;;6281991;28;20045;-81
2022/05/16 15:13:15;;;;;;;6.68;4.93;;;;;;;;;;6285455;28;20048;-81
2022/05/16 15:16:17;;;;;;;7.28;4.72;;;;;;;;;;6283678;28;20178;-80
2022/05/16 15:19:20;;;;;;;7.70;4.85;;;;;;;;;;6300534;28;20069;-80
2022/05/16 15:22:21;;;;;;;8.03;4.80;;;;;;;;;;6305936;28;20048;-80
2022/05/16 15:25:23;;;;;;;10.07;5.43;;;;;;;;;;6307771;28;20504;-80
2022/05/16 15:28:25;;;;;;;7.95;5.45;;;;;;;;;;6306391;28;20075;-80
2022/05/16 15:31:31;;;;;;;6.30;5.53;;;;;;;;;;6333386;28;20044;-80
2022/05/16 15:34:37;;;;;;;7.63;5.20;;;;;;;;;;6333178;28;20085;-80
2022/05/16 15:37:39;;;;;;;9.40;4.97;;;;;;;;;;6302512;28;20048;-81
2022/05/16 15:40:42;;;;;;;9.68;4.97;;;;;;;;;;6282012;28;20044;-79
2022/05/16 15:43:44;;;;;;;8.07;4.93;;;;;;;;;;6306433;28;20078;-80
2022/05/16 15:46:46;;;;;;;8.07;5.30;;;;;;;;;;6282121;28;20151;-81
2022/05/16 15:49:49;;;;;;;7.80;5.47;;;;;;;;;;6303400;28;20047;-80
2022/05/16 15:52:50;;;;;;;;;;;;;;;;;;6310639;28;20429;-80
2022/05/16 15:55:52;;;;;;;9.00;5.20;;;;;;;;;;6300166;28;19935;-81
2022/05/16 15:58:54;;;;;;;7.88;5.00;;;;;;;;;;6285346;28;20052;-82
2022/05/16 16:01:55;;;;;;;7.90;5.50;;;;;;;;;;6281628;28;20127;-82
2022/05/16 16:11:38;;;;;;;7.78;5.45;;;;;;;;;;6286077;28;20059;-80
2022/05/16 16:14:41;;;;;;;10.65;5.68;;;;;;;;;;6287962;28;20109;-80
2022/05/16 16:17:43;;;;;;;;;;;;;;;;;;6292423;28;20044;-80
2022/05/16 16:20:47;;;;;;;9.27;5.38;;;;;;;;;;6312338;28;20377;-80
2022/05/16 16:23:49;;;;;;;8.90;4.55;;;;;;;;;;6313363;28;20483;-80
2022/05/16 16:26:51;;;;;;;6.00;4.30;;;;;;;;;;6314702;28;20173;-81
2022/05/16 16:29:53;;;;;;;8.00;4.10;;;;;;;;;;6303710;28;20062;-80
2022/05/16 16:32:55;;;;;;;10.23;3.90;;;;;;;;;;6287646;28;20480;-80
2022/05/16 16:35:58;;;;;;;10.75;4.43;;;;;;;;;;6289337;28;20125;-79
2022/05/16 16:38:59;;;;;;;4.93;3.70;;;;;;;;;;6289497;28;20041;-81
2022/05/16 16:42:03;;;;;;;7.22;3.92;;;;;;;;;;6287659;28;20664;-79
2022/05/16 16:45:07;;;;;;;5.93;3.80;;;;;;;;;;6286420;28;20051;-80
2022/05/16 16:48:13;;;;;;;5.93;3.50;;;;;;;;;;6287083;28;20051;-79
2022/05/16 16:58:14;;;;;;;6.15;3.92;;;;;;;;;;6286221;28;20044;-81
2022/05/16 17:01:17;;;;;;;7.07;4.18;;;;;;;;;;6288757;28;20060;-81
2022/05/16 17:04:19;;;;;;;6.45;4.25;;;;;;;;;;6283172;28;20041;-81
2022/05/16 17:07:22;;;;;;;11.52;4.63;;;;;;;;;;6289815;28;20048;-79
2022/05/16 17:10:37;;;;;;;8.55;3.97;;;;;;;;;;6305888;28;20055;-79
2022/05/16 17:13:40;;;;;;;7.53;4.20;;;;;;;;;;6327735;28;20044;-82
2022/05/16 17:16:42;;;;;;;;;;;;;;;;;;6336909;28;20707;-79
2022/05/16 17:19:44;;;;;;;5.75;4.22;;;;;;;;;;6332889;28;19928;-80
2022/05/16 17:22:46;;;;;;;5.60;4.10;;;;;;;;;;6331723;28;20052;-79
2022/05/16 17:25:51;;;;;;;6.75;4.70;;;;;;;;;;6287044;28;21796;-79
2022/05/16 17:28:53;;;;;;;7.13;4.65;;;;;;;;;;6288607;28;20501;-81
2022/05/16 17:31:55;;;;;;;9.52;5.90;;;;;;;;;;6286310;28;20055;-80
2022/05/16 17:34:58;;;;;;;8.02;6.82;;;;;;;;;;6287063;28;20055;-80
2022/05/16 17:37:59;;;;;;;;;;;;;;;;;;6288938;28;20056;-79
2022/05/16 17:41:06;;;;;;;17.85;6.88;;;;;;;;;;6286153;28;20238;-79
2022/05/16 17:44:09;;;;;;;12.27;7.45;;;;;;;;;;6287236;28;20040;-79
2022/05/16 17:47:11;;;;;;;16.35;8.43;;;;;;;;;;6286277;28;20041;-80
2022/05/16 17:50:12;;;;;;;13.57;8.77;;;;;;;;;;6313566;28;20633;-80
2022/05/16 17:53:15;;;;;;;15.02;8.38;;;;;;;;;;6311281;28;20048;-81
2022/05/16 17:56:16;;;;;;;17.05;8.55;;;;;;;;;;6312867;28;20134;-80
2022/05/16 17:59:19;;;;;;;13.38;8.98;;;;;;;;;;6310706;28;20052;-79
2022/05/16 18:02:23;;;;;;;13.35;9.07;;;;;;;;;;6294249;28;20113;-79
2022/05/16 18:05:27;;;;;;;17.80;9.43;;;;;;;;;;6310716;28;20086;-80
2022/05/16 18:08:28;;;;;;;11.68;9.07;;;;;;;;;;6310683;28;20189;-78
2022/05/16 18:14:52;;;;;;;16.98;10.57;;;;;;;;;;6286297;28;20127;-79
2022/05/16 18:17:56;;;;;;;14.52;9.88;;;;;;;;;;6283283;28;20648;-80
2022/05/16 18:20:58;;;;;;;16.30;10.05;;;;;;;;;;6284651;28;20090;-81
2022/05/16 18:24:00;;;;;;;15.52;10.43;;;;;;;;;;6286272;28;20124;-80
2022/05/16 18:27:02;;;;;;;15.95;10.48;;;;;;;;;;6289292;28;20203;-80
2022/05/16 18:30:05;;;;;;;18.35;10.13;;;;;;;;;;6310513;28;20048;-79
2022/05/16 18:33:10;;;;;;;18.27;10.45;;;;;;;;;;6302698;28;20590;-80
2022/05/16 18:36:12;;;;;;;19.35;11.68;;;;;;;;;;6301968;28;20135;-81
2022/05/16 18:39:15;;;;;;;16.73;11.00;;;;;;;;;;6286683;28;20129;-81
2022/05/16 18:52:24;;;;;;;22.42;11.95;;;;;;;;;;6314922;28;20044;-81
2022/05/16 18:55:26;;;;;;;19.83;12.80;;;;;;;;;;6307154;28;20055;-80
2022/05/16 18:58:28;;;;;;;21.55;11.98;;;;;;;;;;6293022;28;20068;-80
2022/05/16 19:01:31;;;;;;;18.50;13.25;;;;;;;;;;6285533;28;20190;-81
2022/05/16 19:04:35;;;;;;;19.02;13.85;;;;;;;;;;6308776;28;20040;-82
2022/05/16 19:07:38;;;;;;;22.92;14.27;;;;;;;;;;6309265;28;20588;-80
2022/05/16 19:10:41;;;;;;;;;;;;;;;;;;6308713;28;20047;-80
2022/05/16 19:13:45;;;;;;;16.65;12.50;;;;;;;;;;6291527;28;19971;-81
2022/05/16 19:16:47;;;;;;;21.55;13.07;;;;;;;;;;6282030;28;20055;-80
2022/05/16 19:19:49;;;;;;;20.23;14.10;;;;;;;;;;6301982;28;20044;-80
2022/05/16 19:22:52;;;;;;;23.10;15.35;;;;;;;;;;6306923;28;20142;-79
2022/05/16 19:25:53;;;;;;;;;;;;;;;;;;6309129;28;20123;-80
2022/05/16 19:32:15;;;;;;;21.08;12.77;;;;;;;;;;6283724;28;20135;-79
2022/05/16 19:35:17;;;;;;;22.40;13.55;;;;;;;;;;6283440;28;20048;-81
2022/05/16 19:38:21;;;;;;;19.23;11.93;;;;;;;;;;6285408;28;20484;-82